Terminal Aerodrome Forecast
Issued by NWS Caribou, ME

Home | Current Version | Previous Version | Text Only | Print | Product List | Glossary On
Versions: 1 2 3 4 5 6 7 8 9 10 11 12 13 14 15 16 17 18 19
000
FTUS41 KCAR 051120
TAFBGR
TAF
KBGR 051120Z 0512/0612 VRB03KT 6SM BR SCT002
     FM051230 24006KT P6SM SCT100
     FM051800 24008KT 6SM -SHRA BKN090
     FM052000 25008KT P6SM BKN250=

USA.gov is the U.S. government's official web portal to all federal, state and local government web resources and services.